Time;durP1;ratioP1;P1;durP2;ratioP2;P2;SDS_P1;SDS_P2;PMS_P1;PMS_P2;Temp;Humidity;BMP_temperature;BMP_pressure;BME280_temperature;BME280_humidity;BME280_pressure;Samples;Min_cycle;Max_cycle;Signal;HPM_P1;HPM_P2
2021/04/26 00:01:59;;;;;;;7.35;3.83;;;8.30;47.80;;;;;;5052259;28;20078;-73
2021/04/26 00:04:24;;;;;;;9.95;4.75;;;8.20;47.90;;;;;;5054342;28;20036;-73
2021/04/26 00:06:50;;;;;;;8.95;4.20;;;8.10;47.80;;;;;;5055564;28;20056;-74
2021/04/26 00:09:15;;;;;;;9.05;4.25;;;8.10;47.80;;;;;;5055814;28;20040;-74
2021/04/26 00:11:41;;;;;;;7.50;4.35;;;8.10;47.80;;;;;;5055512;28;20028;-73
2021/04/26 00:14:07;;;;;;;11.43;4.55;;;8.00;47.60;;;;;;5055560;28;20037;-73
2021/04/26 00:16:33;;;;;;;10.93;4.88;;;7.90;47.40;;;;;;5055551;28;20498;-74
2021/04/26 00:19:00;;;;;;;11.13;4.88;;;7.90;47.20;;;;;;5055368;28;20075;-73
2021/04/26 00:21:26;;;;;;;15.80;7.93;;;7.90;47.10;;;;;;5055421;28;20025;-73
2021/04/26 00:23:52;;;;;;;10.25;4.90;;;7.90;46.80;;;;;;5055414;28;20032;-74
2021/04/26 00:26:17;;;;;;;8.43;4.45;;;7.80;47.00;;;;;;5055383;28;20397;-74
2021/04/26 00:28:43;;;;;;;9.07;4.43;;;7.80;46.70;;;;;;5055348;28;20051;-73
2021/04/26 00:31:08;;;;;;;8.57;4.72;;;7.80;46.70;;;;;;5055363;28;20029;-73
2021/04/26 00:33:34;;;;;;;8.75;4.50;;;7.90;46.80;;;;;;5055284;28;20029;-74
2021/04/26 00:35:59;;;;;;;12.02;5.38;;;8.00;46.80;;;;;;5055312;28;20033;-73
2021/04/26 00:38:25;;;;;;;8.43;4.32;;;8.00;47.00;;;;;;5054970;28;20497;-74
2021/04/26 00:40:50;;;;;;;8.55;4.25;;;8.00;47.20;;;;;;5055190;28;20043;-75
2021/04/26 00:43:16;;;;;;;9.18;4.60;;;8.00;47.40;;;;;;5055260;28;20031;-75
2021/04/26 00:45:42;;;;;;;12.65;5.00;;;8.00;47.50;;;;;;5055040;28;20381;-75
2021/04/26 00:48:08;;;;;;;8.45;5.00;;;7.90;47.60;;;;;;5055024;28;20033;-75
2021/04/26 00:50:34;;;;;;;7.22;4.20;;;8.00;47.60;;;;;;5054960;28;20067;-76
2021/04/26 00:53:03;;;;;;;8.32;4.75;;;7.90;47.70;;;;;;5054975;28;20033;-76
2021/04/26 00:55:33;;;;;;;9.07;4.57;;;7.90;48.00;;;;;;5054888;28;20013;-75
2021/04/26 00:57:59;;;;;;;9.70;4.28;;;7.90;48.00;;;;;;5054818;28;20021;-75
2021/04/26 01:00:25;;;;;;;7.50;3.80;;;7.90;48.00;;;;;;5054716;28;20427;-75
2021/04/26 01:02:50;;;;;;;10.40;3.97;;;8.00;47.80;;;;;;5054578;28;20414;-75
2021/04/26 01:05:20;;;;;;;9.77;4.88;;;7.90;47.60;;;;;;5054804;28;20060;-75
2021/04/26 01:07:46;;;;;;;11.02;4.30;;;7.70;47.70;;;;;;5054582;28;20021;-75
2021/04/26 01:10:14;;;;;;;11.38;4.68;;;7.50;48.10;;;;;;5054565;28;20028;-74
2021/04/26 01:13:01;;;;;;;11.52;5.10;;;7.40;48.40;;;;;;5054429;28;20056;-74
2021/04/26 01:15:49;;;;;;;8.57;3.95;;;7.40;48.50;;;;;;5054328;28;20029;-74
2021/04/26 01:18:22;;;;;;;13.02;3.92;;;7.30;48.40;;;;;;5054491;28;20021;-74
2021/04/26 01:21:22;;;;;;;11.98;4.03;;;7.30;48.30;;;;;;5054238;28;20033;-74
2021/04/26 01:24:07;;;;;;;7.57;3.70;;;7.30;48.20;;;;;;5053011;28;20031;-75
2021/04/26 01:26:39;;;;;;;11.45;4.07;;;7.30;48.10;;;;;;5054334;28;20029;-74
2021/04/26 01:29:43;;;;;;;12.25;4.05;;;7.10;48.30;;;;;;5054297;28;20056;-74
2021/04/26 01:32:21;;;;;;;12.75;4.22;;;7.10;48.40;;;;;;5054101;28;20021;-75
2021/04/26 01:34:49;;;;;;;7.70;3.97;;;7.00;48.60;;;;;;5052845;28;20029;-74
2021/04/26 01:37:16;;;;;;;9.00;4.32;;;7.00;49.40;;;;;;5054124;28;20381;-73
2021/04/26 01:39:43;;;;;;;10.90;4.07;;;7.00;48.80;;;;;;5053786;28;20053;-75
2021/04/26 01:42:13;;;;;;;10.05;4.32;;;7.00;49.00;;;;;;5054075;28;20045;-75
2021/04/26 01:44:39;;;;;;;8.13;3.63;;;7.10;49.30;;;;;;5053891;28;20051;-73
2021/04/26 01:47:09;;;;;;;12.93;4.93;;;7.10;49.40;;;;;;5053874;28;20032;-73
2021/04/26 01:49:36;;;;;;;9.15;4.38;;;7.10;49.40;;;;;;5053977;28;20104;-73
2021/04/26 01:52:04;;;;;;;5.32;3.58;;;7.10;49.40;;;;;;5053716;28;20035;-73
2021/04/26 01:54:29;;;;;;;10.65;4.00;;;7.00;49.20;;;;;;5053694;28;20033;-74
2021/04/26 01:56:55;;;;;;;6.07;3.35;;;6.90;49.50;;;;;;5053665;28;20090;-74
2021/04/26 01:59:22;;;;;;;11.68;4.60;;;6.90;49.60;;;;;;5053545;28;20541;-74
2021/04/26 02:01:53;;;;;;;5.18;3.65;;;6.90;49.80;;;;;;5053591;28;20027;-73
2021/04/26 02:04:20;;;;;;;8.82;3.97;;;6.90;50.00;;;;;;5053578;28;20024;-74
2021/04/26 02:06:48;;;;;;;9.50;3.33;;;6.80;50.10;;;;;;5053415;28;20428;-75
2021/04/26 02:09:15;;;;;;;7.72;4.20;;;6.80;50.30;;;;;;5053537;28;20020;-74
2021/04/26 02:11:41;;;;;;;10.82;4.82;;;6.70;50.30;;;;;;5053404;28;20033;-74
2021/04/26 02:14:09;;;;;;;7.90;3.83;;;6.60;50.70;;;;;;5053316;28;20021;-74
2021/04/26 02:16:34;;;;;;;11.40;5.15;;;6.50;50.80;;;;;;5053363;28;20063;-75
2021/04/26 02:19:00;;;;;;;7.10;4.05;;;6.00;51.50;;;;;;5053244;28;20029;-75
2021/04/26 02:21:25;;;;;;;8.68;4.40;;;6.00;51.90;;;;;;5053260;28;20037;-75
2021/04/26 02:23:53;;;;;;;7.40;3.95;;;6.00;52.10;;;;;;5053228;28;20027;-74
2021/04/26 02:26:18;;;;;;;6.88;3.83;;;6.10;52.00;;;;;;5051479;28;20121;-74
2021/04/26 02:28:44;;;;;;;8.55;4.20;;;6.30;51.60;;;;;;5053346;28;20096;-74
2021/04/26 02:31:14;;;;;;;6.70;3.90;;;6.40;51.30;;;;;;5053221;28;20422;-74
2021/04/26 02:33:47;;;;;;;6.00;2.92;;;6.40;51.20;;;;;;5053153;28;20025;-74
2021/04/26 02:36:24;;;;;;;6.95;4.10;;;6.40;51.20;;;;;;5053153;28;20025;-74
2021/04/26 02:38:52;;;;;;;7.60;4.00;;;6.50;51.40;;;;;;5052743;28;20500;-75
2021/04/26 02:41:26;;;;;;;12.13;4.05;;;6.50;51.20;;;;;;5052868;28;20485;-75
2021/04/26 02:43:56;;;;;;;5.43;3.28;;;6.50;51.20;;;;;;5052951;28;20473;-74
2021/04/26 02:46:25;;;;;;;6.82;3.75;;;6.50;51.00;;;;;;5052937;28;20029;-74
2021/04/26 02:48:51;;;;;;;6.32;4.22;;;6.50;51.10;;;;;;5054107;28;20477;-75
2021/04/26 02:51:21;;;;;;;4.85;3.65;;;6.40;51.20;;;;;;5053150;28;20048;-75
2021/04/26 02:53:49;;;;;;;7.40;3.67;;;6.30;51.40;;;;;;5053165;28;20036;-75
2021/04/26 02:56:16;;;;;;;7.60;3.85;;;6.30;51.60;;;;;;5056161;28;20432;-74
2021/04/26 02:58:45;;;;;;;6.53;4.05;;;6.30;51.70;;;;;;5052834;28;20025;-75
2021/04/26 03:01:13;;;;;;;9.48;4.18;;;6.30;51.70;;;;;;5054852;28;20489;-75
2021/04/26 03:03:41;;;;;;;7.47;3.63;;;6.30;51.70;;;;;;5051845;28;20033;-75
2021/04/26 03:06:08;;;;;;;6.65;4.05;;;6.30;51.50;;;;;;5053086;28;20061;-75
2021/04/26 03:08:34;;;;;;;8.63;4.13;;;6.30;51.30;;;;;;5052953;28;20512;-75
2021/04/26 03:11:04;;;;;;;7.82;3.63;;;6.30;51.30;;;;;;5052682;28;20028;-75
2021/04/26 03:13:31;;;;;;;7.43;3.85;;;6.30;51.40;;;;;;5052701;28;20065;-75
2021/04/26 03:15:57;;;;;;;9.85;4.32;;;6.20;51.40;;;;;;5052739;28;20033;-75
2021/04/26 03:18:23;;;;;;;8.23;4.40;;;6.20;51.60;;;;;;5053378;28;20025;-74
2021/04/26 03:20:49;;;;;;;7.82;4.28;;;6.10;51.70;;;;;;5052506;28;20094;-75
2021/04/26 03:23:18;;;;;;;9.50;4.53;;;6.10;52.00;;;;;;5054506;28;20032;-75
2021/04/26 03:25:44;;;;;;;9.85;4.95;;;6.10;52.10;;;;;;5052803;28;20017;-73
2021/04/26 03:28:11;;;;;;;12.52;5.43;;;6.00;52.20;;;;;;5053507;28;20022;-73
2021/04/26 03:30:38;;;;;;;8.95;5.15;;;5.90;52.60;;;;;;5053122;28;20017;-74
2021/04/26 03:33:05;;;;;;;11.13;5.45;;;5.70;52.90;;;;;;5052677;28;20021;-73
2021/04/26 03:35:31;;;;;;;10.80;4.85;;;5.60;53.20;;;;;;5052611;28;20025;-75
2021/04/26 03:37:57;;;;;;;9.15;4.70;;;5.60;53.30;;;;;;5053789;28;20061;-73
2021/04/26 03:40:24;;;;;;;7.88;4.53;;;5.70;53.50;;;;;;5056212;28;20041;-73
2021/04/26 03:42:54;;;;;;;7.93;4.03;;;5.60;53.40;;;;;;5056156;28;20473;-73
2021/04/26 03:45:21;;;;;;;8.93;4.10;;;5.60;53.40;;;;;;5056427;28;20449;-74
2021/04/26 03:47:47;;;;;;;7.93;5.15;;;5.50;53.60;;;;;;5057636;28;20051;-73
2021/04/26 03:50:14;;;;;;;10.52;4.38;;;5.60;53.70;;;;;;5059467;28;20020;-74
2021/04/26 03:52:41;;;;;;;8.63;4.28;;;5.60;53.70;;;;;;5060901;28;20025;-74
2021/04/26 03:55:09;;;;;;;6.53;3.88;;;5.50;53.90;;;;;;5058636;28;20039;-74
2021/04/26 03:57:34;;;;;;;7.63;3.97;;;5.40;53.90;;;;;;5056381;28;20028;-73
2021/04/26 04:00:00;;;;;;;6.93;4.28;;;5.40;54.10;;;;;;5055873;28;20036;-73
2021/04/26 04:02:28;;;;;;;14.90;4.88;;;5.50;54.30;;;;;;5056012;28;20172;-75
2021/04/26 04:04:57;;;;;;;11.43;4.45;;;5.40;54.10;;;;;;5055811;28;20032;-73
2021/04/26 04:07:23;;;;;;;9.27;4.95;;;5.40;54.10;;;;;;5055964;28;20389;-73
2021/04/26 04:09:49;;;;;;;10.98;4.70;;;5.50;54.20;;;;;;5055643;28;20029;-74
2021/04/26 04:12:15;;;;;;;9.57;4.53;;;5.40;54.10;;;;;;5055690;28;20112;-73
2021/04/26 04:14:40;;;;;;;10.02;5.03;;;5.40;54.30;;;;;;5055700;28;20057;-73
2021/04/26 04:17:06;;;;;;;9.40;5.38;;;5.40;54.30;;;;;;5055679;28;20013;-73
2021/04/26 04:19:32;;;;;;;10.68;5.00;;;5.30;54.20;;;;;;5055602;28;20036;-73
2021/04/26 04:21:57;;;;;;;10.52;5.32;;;5.30;54.20;;;;;;5055465;28;20029;-73
2021/04/26 04:24:23;;;;;;;8.63;5.22;;;5.30;54.40;;;;;;5055415;28;20025;-73
2021/04/26 04:26:48;;;;;;;10.05;5.30;;;5.30;54.40;;;;;;5055353;28;20029;-74
2021/04/26 04:29:14;;;;;;;10.88;5.38;;;5.20;54.40;;;;;;5055303;28;20025;-74
2021/04/26 04:31:39;;;;;;;11.27;5.18;;;5.20;54.50;;;;;;5055294;28;20025;-73
2021/04/26 04:34:05;;;;;;;8.30;5.20;;;5.30;54.80;;;;;;5055361;28;20454;-73
2021/04/26 04:36:31;;;;;;;12.27;5.25;;;5.30;54.70;;;;;;5055277;28;20029;-74
2021/04/26 04:38:57;;;;;;;10.40;5.00;;;5.40;54.50;;;;;;5055024;28;20518;-73
2021/04/26 04:41:23;;;;;;;9.05;4.70;;;5.40;54.50;;;;;;5055224;28;20040;-73
2021/04/26 04:43:48;;;;;;;13.02;5.03;;;5.40;54.40;;;;;;5055028;28;20486;-74
2021/04/26 04:46:14;;;;;;;12.60;4.90;;;5.40;54.30;;;;;;5054954;28;20028;-74
2021/04/26 04:48:40;;;;;;;11.20;5.25;;;5.50;54.30;;;;;;5054224;28;20350;-74
2021/04/26 04:51:05;;;;;;;11.07;5.50;;;5.50;54.10;;;;;;5054940;28;20064;-74
2021/04/26 04:53:31;;;;;;;10.55;5.20;;;5.60;54.00;;;;;;5054859;28;20377;-75
2021/04/26 04:55:56;;;;;;;9.20;5.25;;;5.70;53.80;;;;;;5054684;28;20436;-75
2021/04/26 04:58:22;;;;;;;11.52;5.53;;;5.80;53.50;;;;;;5054802;28;20039;-74
2021/04/26 05:00:47;;;;;;;8.02;4.30;;;5.80;53.40;;;;;;5054547;28;20043;-75
2021/04/26 05:03:13;;;;;;;9.88;5.07;;;5.90;53.20;;;;;;5054668;28;20029;-75
2021/04/26 05:05:38;;;;;;;8.25;4.93;;;5.90;52.90;;;;;;5054501;28;20036;-75
2021/04/26 05:08:04;;;;;;;11.20;4.85;;;6.00;52.80;;;;;;5054592;28;20025;-74
2021/04/26 05:10:30;;;;;;;9.15;4.68;;;6.20;52.60;;;;;;5053150;28;20029;-72
2021/04/26 05:12:56;;;;;;;17.10;9.05;;;6.20;52.30;;;;;;5054397;28;20025;-73
2021/04/26 05:15:21;;;;;;;16.60;8.68;;;6.20;52.10;;;;;;5054337;28;20021;-73
2021/04/26 05:17:47;;;;;;;16.45;7.88;;;6.20;52.00;;;;;;5054151;28;20032;-77
2021/04/26 05:20:13;;;;;;;11.32;6.45;;;6.20;52.00;;;;;;5051635;28;20039;-74
2021/04/26 05:22:39;;;;;;;10.80;5.45;;;6.30;52.00;;;;;;5053900;28;20512;-76
2021/04/26 05:25:08;;;;;;;9.75;5.35;;;6.30;51.70;;;;;;5054207;28;20048;-76
2021/04/26 05:27:34;;;;;;;11.70;6.57;;;6.40;51.40;;;;;;5053909;28;20020;-76
2021/04/26 05:29:59;;;;;;;17.75;7.45;;;6.40;51.40;;;;;;5053766;28;20021;-76
2021/04/26 05:32:25;;;;;;;13.93;5.97;;;6.20;51.60;;;;;;5053601;28;20370;-75
2021/04/26 05:34:50;;;;;;;12.27;5.68;;;6.30;51.90;;;;;;5053527;28;20033;-76
2021/04/26 05:37:16;;;;;;;10.40;4.63;;;6.20;51.90;;;;;;5053459;28;20508;-75
2021/04/26 05:39:41;;;;;;;8.30;4.20;;;6.30;52.10;;;;;;5053596;28;20045;-75
2021/04/26 05:42:07;;;;;;;8.45;4.05;;;6.40;51.60;;;;;;5053904;28;20462;-75
2021/04/26 05:44:34;;;;;;;6.50;3.88;;;6.50;51.20;;;;;;5053685;28;20025;-75
2021/04/26 05:46:59;;;;;;;12.95;4.50;;;6.60;50.70;;;;;;5052547;28;20445;-74
2021/04/26 05:49:25;;;;;;;7.28;3.80;;;6.70;50.40;;;;;;5053663;28;20056;-74
2021/04/26 05:51:50;;;;;;;7.70;3.80;;;6.90;50.40;;;;;;5053622;28;20166;-75
2021/04/26 05:54:16;;;;;;;8.20;4.35;;;7.10;50.50;;;;;;5053381;28;20112;-75
2021/04/26 05:56:41;;;;;;;17.42;5.75;;;7.30;51.10;;;;;;5053272;28;20025;-75
2021/04/26 05:59:07;;;;;;;9.57;4.82;;;7.50;49.80;;;;;;5053393;28;20112;-75
2021/04/26 06:01:33;;;;;;;11.20;5.30;;;7.60;49.50;;;;;;5051329;28;20025;-74
2021/04/26 06:03:58;;;;;;;11.05;6.00;;;7.70;49.10;;;;;;5053501;28;20024;-76
2021/04/26 06:06:27;;;;;;;11.20;6.35;;;7.50;49.00;;;;;;5053540;28;20021;-74
2021/04/26 06:08:52;;;;;;;10.23;5.55;;;7.50;49.00;;;;;;5063945;28;20481;-75
2021/04/26 06:11:18;;;;;;;11.15;5.47;;;7.30;49.40;;;;;;5073876;28;20079;-75
2021/04/26 06:13:43;;;;;;;12.20;5.13;;;7.20;49.60;;;;;;5054427;28;20022;-75
2021/04/26 06:16:09;;;;;;;10.65;4.75;;;7.20;50.20;;;;;;5053230;28;20017;-76
2021/04/26 06:18:35;;;;;;;10.98;5.18;;;7.20;50.50;;;;;;5051846;28;20029;-76
2021/04/26 06:21:00;;;;;;;10.85;5.30;;;7.30;50.70;;;;;;5052890;28;20068;-76
2021/04/26 06:23:26;;;;;;;15.38;4.82;;;7.20;50.80;;;;;;5053087;28;20032;-74
2021/04/26 06:25:51;;;;;;;19.08;8.35;;;6.90;51.10;;;;;;5053137;28;20029;-75
2021/04/26 06:28:17;;;;;;;15.02;6.70;;;7.10;51.30;;;;;;5052983;28;20025;-77
2021/04/26 06:30:44;;;;;;;7.93;4.72;;;7.30;51.30;;;;;;5052829;28;20029;-74
2021/04/26 06:33:14;;;;;;;8.25;4.25;;;7.50;50.90;;;;;;5051747;28;20351;-74
2021/04/26 06:35:48;;;;;;;21.63;5.32;;;7.80;50.70;;;;;;5053003;28;20078;-75
2021/04/26 06:38:14;;;;;;;8.10;4.40;;;7.90;50.10;;;;;;5052747;28;20060;-74
2021/04/26 06:40:41;;;;;;;6.30;4.25;;;8.00;49.90;;;;;;5052956;28;20044;-73
2021/04/26 06:43:07;;;;;;;10.10;4.88;;;8.10;49.60;;;;;;5052868;28;20196;-75
2021/04/26 06:45:33;;;;;;;7.75;4.72;;;8.20;49.20;;;;;;5052735;28;20025;-75
2021/04/26 06:47:59;;;;;;;9.63;4.50;;;7.90;49.50;;;;;;5051349;28;20535;-75
2021/04/26 06:50:26;;;;;;;15.20;4.50;;;7.80;49.80;;;;;;5052706;28;20033;-75
2021/04/26 06:52:56;;;;;;;9.07;4.53;;;7.90;50.00;;;;;;5052718;28;20032;-76
2021/04/26 06:55:23;;;;;;;11.75;4.70;;;8.00;50.20;;;;;;5052733;28;20087;-74
2021/04/26 06:57:48;;;;;;;9.52;4.60;;;8.40;50.00;;;;;;5052675;28;20100;-74
2021/04/26 07:00:15;;;;;;;8.63;4.72;;;8.20;49.30;;;;;;5052471;28;20029;-75
2021/04/26 07:02:41;;;;;;;19.90;5.82;;;8.30;49.20;;;;;;5051114;28;20025;-74
2021/04/26 07:05:08;;;;;;;9.65;4.80;;;8.30;49.10;;;;;;5052495;28;20096;-74
2021/04/26 07:07:34;;;;;;;10.65;4.32;;;8.50;48.70;;;;;;5052597;28;20111;-74
2021/04/26 07:09:59;;;;;;;12.07;5.32;;;8.80;48.30;;;;;;5052351;28;20071;-74
2021/04/26 07:12:25;;;;;;;7.07;4.22;;;9.10;47.80;;;;;;5053338;28;20033;-75
2021/04/26 07:14:51;;;;;;;8.63;5.03;;;9.20;47.40;;;;;;5056413;28;20076;-73
2021/04/26 07:17:17;;;;;;;9.65;5.38;;;9.50;46.90;;;;;;5056436;28;20371;-74
2021/04/26 07:19:42;;;;;;;11.63;5.38;;;9.40;46.50;;;;;;5056313;28;20037;-73
2021/04/26 07:22:08;;;;;;;7.38;4.43;;;9.50;46.00;;;;;;5056371;28;20347;-73
2021/04/26 07:24:34;;;;;;;11.48;4.78;;;9.70;45.60;;;;;;5056295;28;20029;-74
2021/04/26 07:26:59;;;;;;;9.50;5.53;;;9.60;45.40;;;;;;5056395;28;20100;-74
2021/04/26 07:29:25;;;;;;;12.93;4.97;;;9.40;45.80;;;;;;5056368;28;20033;-74
2021/04/26 07:31:50;;;;;;;11.35;5.15;;;9.40;45.90;;;;;;5056351;28;20472;-75
2021/04/26 07:34:16;;;;;;;10.63;5.30;;;9.50;45.60;;;;;;5056260;28;20032;-74
2021/04/26 07:36:42;;;;;;;11.73;5.32;;;9.70;45.30;;;;;;5056131;28;20473;-76
2021/04/26 07:39:08;;;;;;;11.02;6.13;;;9.70;45.70;;;;;;5055841;28;20127;-73
2021/04/26 07:41:34;;;;;;;11.15;5.50;;;9.70;46.40;;;;;;5055519;28;20280;-74
2021/04/26 07:44:00;;;;;;;9.50;5.65;;;9.90;46.60;;;;;;5055704;28;20032;-76
2021/04/26 07:46:26;;;;;;;11.95;5.13;;;10.00;46.80;;;;;;5055879;28;20025;-73
2021/04/26 07:48:52;;;;;;;14.50;6.15;;;10.20;46.60;;;;;;5055694;28;20047;-74
2021/04/26 07:51:17;;;;;;;9.50;5.50;;;10.30;46.40;;;;;;5055687;28;20533;-75
2021/04/26 07:53:43;;;;;;;9.50;5.53;;;10.30;46.00;;;;;;5055706;28;20074;-74
2021/04/26 07:56:09;;;;;;;8.60;5.15;;;10.40;45.70;;;;;;5055903;28;20032;-74
2021/04/26 07:58:37;;;;;;;12.02;7.22;;;10.60;45.10;;;;;;5055788;28;20478;-73
2021/04/26 08:01:03;;;;;;;15.23;6.88;;;10.70;44.90;;;;;;5055426;28;20029;-73
2021/04/26 08:03:28;;;;;;;10.07;5.97;;;10.60;45.40;;;;;;5055650;28;20100;-73
2021/04/26 08:05:54;;;;;;;11.93;6.03;;;10.70;45.60;;;;;;5055540;28;20029;-76
2021/04/26 08:08:20;;;;;;;12.82;6.60;;;10.70;45.30;;;;;;5054301;28;20556;-74
2021/04/26 08:10:46;;;;;;;14.80;6.05;;;10.60;45.00;;;;;;5055470;28;20025;-73
2021/04/26 08:13:15;;;;;;;11.95;5.90;;;10.60;44.90;;;;;;5055660;28;20025;-73
2021/04/26 08:15:41;;;;;;;11.75;7.00;;;10.60;45.20;;;;;;5055490;28;20405;-74
2021/04/26 08:18:07;;;;;;;14.43;6.63;;;10.50;45.40;;;;;;5055410;28;20050;-75
2021/04/26 08:20:33;;;;;;;14.65;6.65;;;10.70;45.60;;;;;;5055496;28;20056;-74
2021/04/26 08:22:59;;;;;;;15.65;5.95;;;10.90;45.20;;;;;;5054638;28;20021;-74
2021/04/26 08:25:24;;;;;;;12.25;5.97;;;11.00;44.70;;;;;;5053749;28;20025;-74
2021/04/26 08:27:50;;;;;;;11.00;5.97;;;11.20;44.80;;;;;;5054957;28;20025;-74
2021/04/26 08:30:16;;;;;;;9.50;5.45;;;11.20;44.30;;;;;;5055214;28;20043;-75
2021/04/26 08:32:42;;;;;;;7.70;5.15;;;11.30;43.90;;;;;;5055238;28;20071;-74
2021/04/26 08:35:08;;;;;;;7.43;5.18;;;11.60;43.90;;;;;;5055034;28;20022;-74
2021/04/26 08:37:34;;;;;;;13.55;5.43;;;12.00;43.70;;;;;;5054458;28;20041;-74
2021/04/26 08:39:59;;;;;;;9.88;5.30;;;12.30;42.60;;;;;;5054385;28;20143;-74
2021/04/26 08:42:25;;;;;;;15.60;5.15;;;12.50;41.80;;;;;;5054397;28;20494;-74
2021/04/26 08:44:51;;;;;;;11.80;6.07;;;12.70;41.40;;;;;;5054848;28;20029;-75
2021/04/26 08:47:19;;;;;;;13.00;5.55;;;12.70;41.10;;;;;;5054925;28;20025;-75
2021/04/26 08:49:45;;;;;;;13.45;5.45;;;12.40;41.40;;;;;;5054694;28;20045;-75
2021/04/26 08:52:11;;;;;;;11.63;5.70;;;12.40;41.60;;;;;;5054460;28;20061;-75
2021/04/26 08:54:37;;;;;;;10.68;5.03;;;12.40;41.70;;;;;;5054858;28;20021;-73
2021/04/26 08:57:03;;;;;;;9.93;5.35;;;12.50;41.60;;;;;;5054908;28;20029;-74
2021/04/26 08:59:29;;;;;;;11.85;5.60;;;12.50;42.50;;;;;;5054426;28;20490;-76
2021/04/26 09:02:03;;;;;;;14.07;6.00;;;12.50;41.80;;;;;;5054380;28;20033;-75
2021/04/26 09:04:33;;;;;;;11.77;6.28;;;12.60;41.40;;;;;;5054911;28;20017;-75
2021/04/26 09:07:03;;;;;;;10.65;5.00;;;12.60;41.40;;;;;;5054799;28;20017;-75
2021/04/26 09:09:44;;;;;;;12.25;6.40;;;12.70;41.80;;;;;;5054683;28;20017;-73
2021/04/26 09:12:21;;;;;;;14.20;6.35;;;12.70;41.10;;;;;;5054378;28;20021;-75
2021/04/26 09:14:54;;;;;;;11.70;5.60;;;12.70;40.80;;;;;;5054485;28;20461;-73
2021/04/26 09:17:44;;;;;;;9.85;5.50;;;12.60;41.20;;;;;;5054615;28;20033;-73
2021/04/26 09:20:15;;;;;;;9.40;5.05;;;12.80;41.20;;;;;;5054362;28;20033;-74
2021/04/26 09:22:42;;;;;;;11.40;5.40;;;13.00;40.90;;;;;;5054524;28;20105;-73
2021/04/26 09:25:41;;;;;;;13.10;6.03;;;13.40;40.50;;;;;;5054331;28;20028;-74
2021/04/26 09:28:10;;;;;;;12.68;5.45;;;13.80;40.90;;;;;;5055174;28;20080;-75
2021/04/26 09:30:55;;;;;;;9.60;5.05;;;14.00;39.20;;;;;;5054417;28;20021;-74
2021/04/26 09:33:26;;;;;;;10.30;5.85;;;14.20;39.30;;;;;;5054166;28;20033;-74
2021/04/26 09:36:13;;;;;;;10.55;4.95;;;14.50;38.10;;;;;;5054529;28;20065;-74
2021/04/26 09:38:43;;;;;;;10.60;5.07;;;14.80;37.40;;;;;;5055666;28;20044;-74
2021/04/26 09:41:10;;;;;;;19.02;4.97;;;15.00;37.30;;;;;;5058526;28;20033;-82
2021/04/26 09:43:36;;;;;;;13.45;4.25;;;15.30;40.40;;;;;;5058745;28;20029;-74
2021/04/26 09:46:02;;;;;;;10.15;4.13;;;15.60;42.10;;;;;;5070082;28;20017;-79
2021/04/26 09:48:29;;;;;;;9.65;5.00;;;15.60;40.30;;;;;;5076006;28;20067;-75
2021/04/26 09:51:07;;;;;;;7.70;4.50;;;15.80;39.10;;;;;;5062149;28;20033;-72
2021/04/26 09:53:39;;;;;;;10.82;5.05;;;16.00;38.30;;;;;;5044556;28;20022;-73
2021/04/26 09:56:15;;;;;;;10.32;4.65;;;16.00;37.20;;;;;;5067661;28;20025;-75
2021/04/26 09:58:41;;;;;;;11.27;5.13;;;16.10;37.00;;;;;;5069717;28;20025;-72
2021/04/26 10:01:08;;;;;;;12.40;4.57;;;16.20;36.00;;;;;;5076055;28;20045;-76
2021/04/26 10:03:34;;;;;;;8.02;4.32;;;16.20;35.40;;;;;;5063641;28;20052;-77
2021/04/26 10:06:00;;;;;;;15.60;4.70;;;16.40;34.90;;;;;;5060366;28;20485;-72
2021/04/26 10:08:26;;;;;;;8.50;4.15;;;16.60;34.40;;;;;;5053835;28;20021;-76
2021/04/26 10:10:52;;;;;;;7.72;4.93;;;16.50;33.70;;;;;;5053514;28;20033;-74
2021/04/26 10:13:22;;;;;;;7.80;4.20;;;16.40;33.30;;;;;;5054438;28;20029;-73
2021/04/26 10:15:56;;;;;;;9.57;4.47;;;16.70;33.30;;;;;;5057448;28;20033;-81
2021/04/26 10:18:29;;;;;;;10.15;4.43;;;16.90;32.80;;;;;;5065752;28;20029;-77
2021/04/26 10:20:55;;;;;;;8.48;4.38;;;16.70;32.20;;;;;;5073237;28;20037;-74
2021/04/26 10:23:33;;;;;;;8.57;3.78;;;16.90;32.30;;;;;;5075355;28;20208;-74
2021/04/26 10:25:58;;;;;;;8.75;4.15;;;17.20;31.80;;;;;;5074888;28;20084;-75
2021/04/26 10:28:35;;;;;;;11.50;3.80;;;17.40;31.30;;;;;;5073727;28;20086;-74
2021/04/26 10:31:08;;;;;;;10.27;4.63;;;17.80;31.20;;;;;;5065453;28;20025;-74
2021/04/26 10:33:58;;;;;;;8.75;4.30;;;17.80;30.30;;;;;;5056463;28;20381;-74
2021/04/26 10:36:42;;;;;;;8.07;3.58;;;17.90;30.10;;;;;;5058325;28;20056;-74
2021/04/26 10:39:09;;;;;;;6.32;2.88;;;17.80;29.80;;;;;;5064562;28;20075;-75
2021/04/26 10:42:01;;;;;;;11.02;4.53;;;18.20;30.40;;;;;;5058289;28;20017;-72
2021/04/26 10:44:39;;;;;;;6.85;3.42;;;18.70;30.40;;;;;;5055837;28;20552;-76
2021/04/26 10:47:17;;;;;;;8.82;4.30;;;19.00;29.20;;;;;;5054654;28;20061;-72
2021/04/26 10:49:45;;;;;;;9.35;4.40;;;19.00;28.60;;;;;;5056658;28;20079;-76
2021/04/26 10:52:26;;;;;;;9.27;4.47;;;18.70;28.10;;;;;;5057473;28;20021;-74
2021/04/26 10:55:00;;;;;;;7.75;3.47;;;18.90;27.90;;;;;;5054540;28;20108;-79
2021/04/26 10:57:41;;;;;;;7.80;3.80;;;19.20;28.00;;;;;;5054539;28;20060;-78
2021/04/26 11:02:48;;;;;;;8.35;4.03;;;19.80;27.70;;;;;;5053434;28;20067;-75
2021/04/26 11:05:26;;;;;;;7.63;3.72;;;19.90;27.40;;;;;;5053277;28;20112;-76
2021/04/26 11:07:56;;;;;;;6.03;4.25;;;20.00;26.70;;;;;;5051974;28;20025;-79
2021/04/26 11:10:37;;;;;;;9.75;4.35;;;19.20;26.20;;;;;;5053449;28;20021;-80
2021/04/26 11:13:31;;;;;;;10.90;5.00;;;19.00;26.30;;;;;;5052828;28;20036;-75
2021/04/26 11:16:03;;;;;;;13.10;4.57;;;18.60;25.80;;;;;;5052660;28;20025;-73
2021/04/26 11:18:30;;;;;;;7.32;3.63;;;18.40;26.00;;;;;;5051498;28;20091;-75
2021/04/26 11:20:55;;;;;;;8.77;4.00;;;18.60;26.80;;;;;;5052531;28;20106;-82
2021/04/26 11:23:52;;;;;;;6.20;4.05;;;19.00;27.10;;;;;;5051633;28;20032;-74
2021/04/26 11:26:21;;;;;;;;;;;19.50;27.40;;;;;;5053050;28;20025;-76
2021/04/26 11:29:11;;;;;;;9.25;4.43;;;19.80;26.60;;;;;;5052890;28;19905;-79
2021/04/26 11:31:45;;;;;;;9.70;4.85;;;20.30;26.50;;;;;;5052509;28;20037;-85
2021/04/26 11:34:14;;;;;;;8.43;4.20;;;20.50;25.60;;;;;;5052699;28;20029;-76
2021/04/26 11:37:00;;;;;;;8.93;4.10;;;20.20;24.70;;;;;;5052712;28;20021;-78
2021/04/26 11:39:33;;;;;;;8.27;4.10;;;20.10;24.00;;;;;;5051959;28;20049;-77
2021/04/26 11:42:00;;;;;;;9.18;4.57;;;20.30;24.00;;;;;;5052195;28;20444;-84
2021/04/26 11:44:27;;;;;;;15.13;4.65;;;20.20;23.80;;;;;;5052542;28;20532;-78
2021/04/26 11:46:54;;;;;;;8.90;4.20;;;19.90;23.60;;;;;;5053013;28;20570;-85
2021/04/26 11:49:22;;;;;;;10.43;4.47;;;19.30;23.80;;;;;;5053235;28;20049;-79
2021/04/26 11:51:51;;;;;;;7.50;4.18;;;19.40;24.50;;;;;;5053409;28;20131;-81
2021/04/26 11:54:19;;;;;;;8.85;4.25;;;19.50;24.30;;;;;;5053446;28;20021;-73
2021/04/26 11:57:15;;;;;;;12.38;4.85;;;19.50;24.10;;;;;;5053580;28;20025;-79
2021/04/26 11:59:53;;;;;;;9.40;3.88;;;19.40;23.60;;;;;;5056123;28;20116;-81
2021/04/26 12:02:42;;;;;;;7.38;4.25;;;19.70;24.70;;;;;;5056507;28;20107;-73
2021/04/26 12:05:17;;;;;;;11.43;4.68;;;20.20;24.20;;;;;;5055859;28;20025;-75
2021/04/26 12:07:46;;;;;;;10.87;4.43;;;20.60;24.20;;;;;;5055939;28;20025;-80
2021/04/26 12:10:14;;;;;;;9.73;4.95;;;20.90;23.10;;;;;;5053829;28;20120;-81
2021/04/26 12:12:42;;;;;;;6.22;3.63;;;20.70;22.40;;;;;;5055365;28;20291;-76
2021/04/26 12:15:11;;;;;;;12.82;5.68;;;20.70;22.40;;;;;;5055687;28;20024;-81
2021/04/26 12:17:45;;;;;;;8.40;4.68;;;20.50;22.00;;;;;;5056517;28;20100;-76
2021/04/26 12:20:17;;;;;;;10.55;5.22;;;20.50;22.40;;;;;;5055283;28;20426;-76
2021/04/26 12:22:44;;;;;;;8.10;4.22;;;20.40;22.10;;;;;;5053918;28;20052;-76
2021/04/26 12:25:12;;;;;;;6.30;4.47;;;20.60;22.10;;;;;;5062472;28;20081;-77
2021/04/26 12:27:38;;;;;;;10.88;5.18;;;20.70;21.50;;;;;;5073619;28;20027;-76
2021/04/26 12:30:13;;;;;;;7.65;4.97;;;20.50;21.30;;;;;;5073900;28;20031;-74
2021/04/26 12:32:39;;;;;;;13.13;4.87;;;20.40;21.20;;;;;;5073717;28;20500;-76
2021/04/26 12:35:10;;;;;;;13.15;5.55;;;20.30;21.10;;;;;;5073690;28;20775;-76
2021/04/26 12:37:42;;;;;;;9.75;5.47;;;20.60;21.40;;;;;;5073600;28;20020;-76
2021/04/26 12:40:25;;;;;;;7.13;4.68;;;21.00;21.60;;;;;;5074807;28;20106;-75
2021/04/26 12:42:56;;;;;;;10.00;4.80;;;21.30;21.40;;;;;;5073615;28;20502;-75
2021/04/26 12:45:24;;;;;;;7.95;4.30;;;21.50;21.10;;;;;;5074655;28;20024;-76
2021/04/26 12:48:25;;;;;;;10.40;4.20;;;21.60;20.60;;;;;;5074265;28;20073;-78
2021/04/26 12:50:52;;;;;;;5.20;4.20;;;21.60;20.00;;;;;;5068807;28;20137;-77
2021/04/26 12:53:27;;;;;;;5.32;3.78;;;21.50;19.40;;;;;;5075018;28;20020;-76
2021/04/26 12:56:03;;;;;;;6.47;2.75;;;21.70;19.40;;;;;;5073247;28;20025;-78
2021/04/26 12:58:30;;;;;;;4.93;2.80;;;22.10;18.80;;;;;;5074375;28;20465;-78
2021/04/26 13:00:59;;;;;;;3.92;2.60;;;22.60;17.70;;;;;;5074224;28;20032;-76